sensor_id;sensor_type;location;lat;lon;timestamp;pressure;altitude;pressure_sealevel;temperature;humidity
35704;BME280;21820;51.112;13.762;2024-02-21T00:00:43;100068.59;;;19.02;49.14
35704;BME280;21820;51.112;13.762;2024-02-21T00:03:09;100055.47;;;19.03;49.30
35704;BME280;21820;51.112;13.762;2024-02-21T00:05:34;100057.56;;;18.98;49.65
35704;BME280;21820;51.112;13.762;2024-02-21T00:08:00;100060.91;;;19.00;49.29
35704;BME280;21820;51.112;13.762;2024-02-21T00:10:25;100046.19;;;18.99;49.15
35704;BME280;21820;51.112;13.762;2024-02-21T00:12:51;100043.34;;;19.02;49.39
35704;BME280;21820;51.112;13.762;2024-02-21T00:15:17;100045.03;;;19.03;49.08
35704;BME280;21820;51.112;13.762;2024-02-21T00:17:43;100049.41;;;19.03;48.88
35704;BME280;21820;51.112;13.762;2024-02-21T00:20:09;100045.97;;;19.02;50.36
35704;BME280;21820;51.112;13.762;2024-02-21T00:22:34;100045.03;;;19.03;49.28
35704;BME280;21820;51.112;13.762;2024-02-21T00:24:59;100039.81;;;19.03;49.20
35704;BME280;21820;51.112;13.762;2024-02-21T00:27:25;100040.56;;;19.05;49.17
35704;BME280;21820;51.112;13.762;2024-02-21T00:29:50;100030.00;;;19.07;48.78
35704;BME280;21820;51.112;13.762;2024-02-21T00:32:16;100027.94;;;18.99;48.64
35704;BME280;21820;51.112;13.762;2024-02-21T00:34:41;100026.06;;;19.01;48.98
35704;BME280;21820;51.112;13.762;2024-02-21T00:37:06;100031.91;;;19.05;49.13
35704;BME280;21820;51.112;13.762;2024-02-21T00:39:32;100027.34;;;18.96;48.70
35704;BME280;21820;51.112;13.762;2024-02-21T00:41:57;100012.50;;;18.85;48.75
35704;BME280;21820;51.112;13.762;2024-02-21T00:44:22;100018.66;;;18.84;49.58
35704;BME280;21820;51.112;13.762;2024-02-21T00:46:48;100017.00;;;18.83;49.99
35704;BME280;21820;51.112;13.762;2024-02-21T00:49:13;99993.72;;;18.69;49.74
35704;BME280;21820;51.112;13.762;2024-02-21T00:51:38;100009.66;;;18.77;50.17
35704;BME280;21820;51.112;13.762;2024-02-21T00:54:04;100010.34;;;18.79;49.79
35704;BME280;21820;51.112;13.762;2024-02-21T00:56:29;100006.94;;;18.79;50.43
35704;BME280;21820;51.112;13.762;2024-02-21T00:58:55;100003.47;;;18.78;50.60
35704;BME280;21820;51.112;13.762;2024-02-21T01:01:22;100005.34;;;18.76;50.57
35704;BME280;21820;51.112;13.762;2024-02-21T01:03:48;99998.28;;;18.78;51.77
35704;BME280;21820;51.112;13.762;2024-02-21T01:06:13;100000.16;;;18.76;50.31
35704;BME280;21820;51.112;13.762;2024-02-21T01:08:39;99994.44;;;18.71;50.96
35704;BME280;21820;51.112;13.762;2024-02-21T01:11:04;99988.31;;;18.72;51.02
35704;BME280;21820;51.112;13.762;2024-02-21T01:13:30;99995.66;;;18.78;50.82
35704;BME280;21820;51.112;13.762;2024-02-21T01:15:55;99973.69;;;18.82;50.35
35704;BME280;21820;51.112;13.762;2024-02-21T01:18:20;99985.09;;;18.92;49.85
35704;BME280;21820;51.112;13.762;2024-02-21T01:20:46;99982.25;;;18.95;49.38
35704;BME280;21820;51.112;13.762;2024-02-21T01:23:11;99970.63;;;18.99;49.82
35704;BME280;21820;51.112;13.762;2024-02-21T01:25:36;99974.91;;;19.00;49.38
35704;BME280;21820;51.112;13.762;2024-02-21T01:28:02;99970.63;;;18.99;49.58
35704;BME280;21820;51.112;13.762;2024-02-21T01:30:27;99967.31;;;18.97;49.43
35704;BME280;21820;51.112;13.762;2024-02-21T01:32:53;99959.28;;;19.00;48.98
35704;BME280;21820;51.112;13.762;2024-02-21T01:35:18;99935.28;;;18.84;49.17
35704;BME280;21820;51.112;13.762;2024-02-21T01:37:43;99955.25;;;18.96;49.44
35704;BME280;21820;51.112;13.762;2024-02-21T01:40:09;99923.22;;;18.83;49.69
35704;BME280;21820;51.112;13.762;2024-02-21T01:42:38;99939.59;;;18.96;49.76
35704;BME280;21820;51.112;13.762;2024-02-21T01:45:05;99937.38;;;19.03;49.05
35704;BME280;21820;51.112;13.762;2024-02-21T01:47:30;99933.22;;;19.00;49.01
35704;BME280;21820;51.112;13.762;2024-02-21T01:49:56;99918.66;;;18.98;49.47
35704;BME280;21820;51.112;13.762;2024-02-21T01:52:21;99925.63;;;18.97;49.19
35704;BME280;21820;51.112;13.762;2024-02-21T01:54:47;99918.28;;;19.02;48.84
35704;BME280;21820;51.112;13.762;2024-02-21T01:57:13;99926.09;;;19.02;48.60
35704;BME280;21820;51.112;13.762;2024-02-21T01:59:38;99920.22;;;19.00;49.29
35704;BME280;21820;51.112;13.762;2024-02-21T02:02:05;99900.94;;;18.79;48.24
35704;BME280;21820;51.112;13.762;2024-02-21T02:04:30;99912.81;;;18.83;48.85
35704;BME280;21820;51.112;13.762;2024-02-21T02:06:55;99912.81;;;18.83;48.98
35704;BME280;21820;51.112;13.762;2024-02-21T02:09:22;99908.44;;;18.84;49.35
35704;BME280;21820;51.112;13.762;2024-02-21T02:11:47;99906.88;;;18.81;49.56
35704;BME280;21820;51.112;13.762;2024-02-21T02:14:13;99910.56;;;18.79;49.94
35704;BME280;21820;51.112;13.762;2024-02-21T02:16:38;99897.66;;;18.77;50.40
35704;BME280;21820;51.112;13.762;2024-02-21T02:19:03;99907.22;;;18.77;50.11
35704;BME280;21820;51.112;13.762;2024-02-21T02:21:30;99904.75;;;18.75;50.37
35704;BME280;21820;51.112;13.762;2024-02-21T02:23:57;99897.84;;;18.74;50.20
35704;BME280;21820;51.112;13.762;2024-02-21T02:26:24;99902.25;;;18.74;50.42
35704;BME280;21820;51.112;13.762;2024-02-21T02:28:49;99904.97;;;18.72;50.58
35704;BME280;21820;51.112;13.762;2024-02-21T02:31:15;99898.09;;;18.71;50.44
35704;BME280;21820;51.112;13.762;2024-02-21T02:33:42;99897.28;;;18.71;50.97
35704;BME280;21820;51.112;13.762;2024-02-21T02:36:09;99896.94;;;18.75;50.57
35704;BME280;21820;51.112;13.762;2024-02-21T02:38:34;99899.56;;;18.86;50.01
35704;BME280;21820;51.112;13.762;2024-02-21T02:41:00;99901.72;;;18.92;49.85
35704;BME280;21820;51.112;13.762;2024-02-21T02:43:25;99890.09;;;18.85;49.41
35704;BME280;21820;51.112;13.762;2024-02-21T02:45:50;99895.66;;;18.92;49.04
35704;BME280;21820;51.112;13.762;2024-02-21T02:48:15;99891.06;;;18.95;49.68
35704;BME280;21820;51.112;13.762;2024-02-21T02:50:41;99883.94;;;18.97;49.18
35704;BME280;21820;51.112;13.762;2024-02-21T02:53:06;99860.94;;;18.80;49.51
35704;BME280;21820;51.112;13.762;2024-02-21T02:55:32;99883.47;;;18.92;49.25
35704;BME280;21820;51.112;13.762;2024-02-21T02:57:57;99875.06;;;18.89;49.41
35704;BME280;21820;51.112;13.762;2024-02-21T03:00:22;99880.16;;;18.90;49.04
35704;BME280;21820;51.112;13.762;2024-02-21T03:02:48;99879.69;;;18.96;49.59
35704;BME280;21820;51.112;13.762;2024-02-21T03:05:18;99878.97;;;18.94;49.73
35704;BME280;21820;51.112;13.762;2024-02-21T03:07:44;99878.03;;;18.95;49.25
35704;BME280;21820;51.112;13.762;2024-02-21T03:10:10;99868.31;;;18.97;49.02
35704;BME280;21820;51.112;13.762;2024-02-21T03:12:36;99843.44;;;18.82;48.61
35704;BME280;21820;51.112;13.762;2024-02-21T03:15:02;99863.22;;;18.96;48.76
35704;BME280;21820;51.112;13.762;2024-02-21T03:17:28;99865.13;;;18.94;48.85
35704;BME280;21820;51.112;13.762;2024-02-21T03:19:54;99861.09;;;19.01;49.50
35704;BME280;21820;51.112;13.762;2024-02-21T03:22:21;99841.53;;;18.84;49.01
35704;BME280;21820;51.112;13.762;2024-02-21T03:24:46;99862.16;;;18.87;48.54
35704;BME280;21820;51.112;13.762;2024-02-21T03:27:11;99864.28;;;18.82;48.96
35704;BME280;21820;51.112;13.762;2024-02-21T03:29:37;99863.56;;;18.80;49.67
35704;BME280;21820;51.112;13.762;2024-02-21T03:32:02;99852.31;;;18.80;49.74
35704;BME280;21820;51.112;13.762;2024-02-21T03:34:27;99861.06;;;18.79;49.93
35704;BME280;21820;51.112;13.762;2024-02-21T03:36:53;99863.91;;;18.76;50.15
35704;BME280;21820;51.112;13.762;2024-02-21T03:39:18;99856.19;;;18.74;50.13
35704;BME280;21820;51.112;13.762;2024-02-21T03:41:43;99831.53;;;18.56;50.28
35704;BME280;21820;51.112;13.762;2024-02-21T03:44:09;99855.50;;;18.72;50.26
35704;BME280;21820;51.112;13.762;2024-02-21T03:46:34;99852.06;;;18.72;50.41
35704;BME280;21820;51.112;13.762;2024-02-21T03:48:59;99848.59;;;18.71;50.62
35704;BME280;21820;51.112;13.762;2024-02-21T03:51:26;99842.91;;;18.66;50.92
35704;BME280;21820;51.112;13.762;2024-02-21T03:53:51;99850.50;;;18.69;50.78
35704;BME280;21820;51.112;13.762;2024-02-21T03:56:16;99822.78;;;18.57;50.74
35704;BME280;21820;51.112;13.762;2024-02-21T03:58:42;99842.84;;;18.79;51.14
35704;BME280;21820;51.112;13.762;2024-02-21T04:01:07;99837.75;;;18.88;50.50
35704;BME280;21820;51.112;13.762;2024-02-21T04:03:32;99833.97;;;18.92;49.32
35704;BME280;21820;51.112;13.762;2024-02-21T04:05:58;99814.63;;;18.73;49.27
35704;BME280;21820;51.112;13.762;2024-02-21T04:08:23;99838.34;;;18.92;49.33
35704;BME280;21820;51.112;13.762;2024-02-21T04:10:49;99833.16;;;18.92;49.47
35704;BME280;21820;51.112;13.762;2024-02-21T04:13:14;99840.84;;;18.93;49.27
35704;BME280;21820;51.112;13.762;2024-02-21T04:15:40;99840.13;;;18.91;49.76
35704;BME280;21820;51.112;13.762;2024-02-21T04:18:05;99834.19;;;18.89;49.00
35704;BME280;21820;51.112;13.762;2024-02-21T04:20:31;99835.88;;;18.90;49.75
35704;BME280;21820;51.112;13.762;2024-02-21T04:22:57;99833.75;;;18.95;49.38
35704;BME280;21820;51.112;13.762;2024-02-21T04:25:23;99819.41;;;18.79;49.13
35704;BME280;21820;51.112;13.762;2024-02-21T04:27:48;99828.53;;;18.95;49.46
35704;BME280;21820;51.112;13.762;2024-02-21T04:30:13;99830.19;;;18.96;49.19
35704;BME280;21820;51.112;13.762;2024-02-21T04:32:39;99802.94;;;18.78;49.42
35704;BME280;21820;51.112;13.762;2024-02-21T04:35:05;99828.97;;;18.89;49.54
35704;BME280;21820;51.112;13.762;2024-02-21T04:37:32;99835.63;;;18.93;49.18
35704;BME280;21820;51.112;13.762;2024-02-21T04:39:57;99822.84;;;18.90;48.62
35704;BME280;21820;51.112;13.762;2024-02-21T04:42:23;99826.84;;;18.94;49.46
35704;BME280;21820;51.112;13.762;2024-02-21T04:44:48;99833.75;;;18.95;48.66
35704;BME280;21820;51.112;13.762;2024-02-21T04:47:14;99819.28;;;18.80;49.11
35704;BME280;21820;51.112;13.762;2024-02-21T04:49:39;99829.81;;;18.79;49.25
35704;BME280;21820;51.112;13.762;2024-02-21T04:52:05;99825.53;;;18.78;49.67
35704;BME280;21820;51.112;13.762;2024-02-21T04:54:30;99825.78;;;18.75;49.46
35704;BME280;21820;51.112;13.762;2024-02-21T04:56:55;99829.34;;;18.74;50.15
35704;BME280;21820;51.112;13.762;2024-02-21T04:59:21;99809.53;;;18.71;49.93
35704;BME280;21820;51.112;13.762;2024-02-21T05:01:46;99822.44;;;18.73;50.39
35704;BME280;21820;51.112;13.762;2024-02-21T05:04:11;99817.34;;;18.71;50.75
35704;BME280;21820;51.112;13.762;2024-02-21T05:06:40;99810.25;;;18.73;51.24
35704;BME280;21820;51.112;13.762;2024-02-21T05:09:07;99810.50;;;18.70;50.64
35704;BME280;21820;51.112;13.762;2024-02-21T05:11:34;99796.03;;;18.66;50.45
35704;BME280;21820;51.112;13.762;2024-02-21T05:13:59;99787.38;;;18.55;51.03
35704;BME280;21820;51.112;13.762;2024-02-21T05:16:24;99794.41;;;18.65;50.79
35704;BME280;21820;51.112;13.762;2024-02-21T05:18:50;99785.13;;;18.50;51.42
35704;BME280;21820;51.112;13.762;2024-02-21T05:21:15;99803.88;;;18.77;50.57
35704;BME280;21820;51.112;13.762;2024-02-21T05:23:40;99808.38;;;18.86;50.11
35704;BME280;21820;51.112;13.762;2024-02-21T05:26:06;99805.31;;;18.92;49.32
35704;BME280;21820;51.112;13.762;2024-02-21T05:28:31;99806.72;;;18.96;50.11
35704;BME280;21820;51.112;13.762;2024-02-21T05:30:57;99807.44;;;18.98;49.44
35704;BME280;21820;51.112;13.762;2024-02-21T05:33:22;99804.00;;;18.98;49.76
35704;BME280;21820;51.112;13.762;2024-02-21T05:35:48;99798.31;;;18.93;49.11
35704;BME280;21820;51.112;13.762;2024-02-21T05:38:16;99770.97;;;18.76;49.17
35704;BME280;21820;51.112;13.762;2024-02-21T05:40:42;99789.69;;;18.92;49.10
35704;BME280;21820;51.112;13.762;2024-02-21T05:43:08;99777.13;;;18.86;49.36
35704;BME280;21820;51.112;13.762;2024-02-21T05:45:34;99786.84;;;18.95;49.81
35704;BME280;21820;51.112;13.762;2024-02-21T05:47:59;99781.28;;;18.89;49.55
35704;BME280;21820;51.112;13.762;2024-02-21T05:50:25;99782.09;;;18.89;49.59
35704;BME280;21820;51.112;13.762;2024-02-21T05:52:52;99779.72;;;18.86;49.29
35704;BME280;21820;51.112;13.762;2024-02-21T05:55:18;99773.94;;;18.94;49.60
35704;BME280;21820;51.112;13.762;2024-02-21T05:57:43;99751.81;;;18.77;49.24
35704;BME280;21820;51.112;13.762;2024-02-21T06:00:09;99766.47;;;18.89;48.77
35704;BME280;21820;51.112;13.762;2024-02-21T06:02:34;99743.28;;;18.75;49.42
35704;BME280;21820;51.112;13.762;2024-02-21T06:05:00;99765.28;;;18.93;48.99
35704;BME280;21820;51.112;13.762;2024-02-21T06:07:25;99767.91;;;18.93;49.40
35704;BME280;21820;51.112;13.762;2024-02-21T06:09:51;99757.34;;;18.95;48.92
35704;BME280;21820;51.112;13.762;2024-02-21T06:12:16;99755.59;;;18.95;48.76
35704;BME280;21820;51.112;13.762;2024-02-21T06:14:41;99751.44;;;18.93;49.05
35704;BME280;21820;51.112;13.762;2024-02-21T06:17:07;99750.38;;;18.95;48.55
35704;BME280;21820;51.112;13.762;2024-02-21T06:19:32;99734.97;;;18.81;48.89
35704;BME280;21820;51.112;13.762;2024-02-21T06:21:57;99738.78;;;18.77;48.78
35704;BME280;21820;51.112;13.762;2024-02-21T06:24:23;99739.72;;;18.76;49.05
35704;BME280;21820;51.112;13.762;2024-02-21T06:26:48;99708.09;;;18.59;49.40
35704;BME280;21820;51.112;13.762;2024-02-21T06:29:13;99735.81;;;18.71;50.28
35704;BME280;21820;51.112;13.762;2024-02-21T06:31:40;99736.75;;;18.70;49.77
35704;BME280;21820;51.112;13.762;2024-02-21T06:34:05;99733.31;;;18.69;50.01
35704;BME280;21820;51.112;13.762;2024-02-21T06:36:31;99732.63;;;18.67;50.54
35704;BME280;21820;51.112;13.762;2024-02-21T06:38:56;99727.53;;;18.66;50.21
35704;BME280;21820;51.112;13.762;2024-02-21T06:41:22;99731.66;;;18.68;50.40
35704;BME280;21820;51.112;13.762;2024-02-21T06:43:47;99737.09;;;18.65;50.34
35704;BME280;21820;51.112;13.762;2024-02-21T06:46:23;99736.50;;;18.62;51.45
35704;BME280;21820;51.112;13.762;2024-02-21T06:48:49;99737.34;;;18.62;51.36
35704;BME280;21820;51.112;13.762;2024-02-21T06:51:14;99738.16;;;18.63;51.16
35704;BME280;21820;51.112;13.762;2024-02-21T06:53:39;99742.06;;;18.68;50.99
35704;BME280;21820;51.112;13.762;2024-02-21T06:56:05;99744.47;;;18.82;49.93
35704;BME280;21820;51.112;13.762;2024-02-21T06:58:31;99739.72;;;18.87;50.02
35704;BME280;21820;51.112;13.762;2024-02-21T07:00:56;99750.84;;;18.89;49.67
35704;BME280;21820;51.112;13.762;2024-02-21T07:03:21;99747.53;;;18.87;49.41
35704;BME280;21820;51.112;13.762;2024-02-21T07:05:49;99754.28;;;18.90;49.32
35704;BME280;21820;51.112;13.762;2024-02-21T07:08:14;99747.53;;;18.87;49.61
35704;BME280;21820;51.112;13.762;2024-02-21T07:10:39;99752.50;;;18.90;49.22
35704;BME280;21820;51.112;13.762;2024-02-21T07:13:05;99729.28;;;18.76;49.19
35704;BME280;21820;51.112;13.762;2024-02-21T07:15:30;99749.91;;;18.90;49.51
35704;BME280;21820;51.112;13.762;2024-02-21T07:17:56;99756.53;;;18.94;49.33
35704;BME280;21820;51.112;13.762;2024-02-21T07:20:21;99747.06;;;18.93;48.94
35704;BME280;21820;51.112;13.762;2024-02-21T07:22:46;99742.91;;;18.91;48.95
35704;BME280;21820;51.112;13.762;2024-02-21T07:25:12;99754.16;;;18.91;49.39
35704;BME280;21820;51.112;13.762;2024-02-21T07:27:37;99755.91;;;18.91;49.31
35704;BME280;21820;51.112;13.762;2024-02-21T07:30:03;99756.63;;;18.93;48.74
35704;BME280;21820;51.112;13.762;2024-02-21T07:32:29;99734.50;;;18.76;49.05
35704;BME280;21820;51.112;13.762;2024-02-21T07:34:54;99749.06;;;18.90;49.47
35704;BME280;21820;51.112;13.762;2024-02-21T07:37:19;99757.59;;;18.92;49.59
35704;BME280;21820;51.112;13.762;2024-02-21T07:39:45;99742.34;;;18.87;49.13
35704;BME280;21820;51.112;13.762;2024-02-21T07:42:10;99738.53;;;18.91;49.22
35704;BME280;21820;51.112;13.762;2024-02-21T07:44:35;99731.66;;;18.90;48.83
35704;BME280;21820;51.112;13.762;2024-02-21T07:47:01;99728.81;;;18.93;49.13
35704;BME280;21820;51.112;13.762;2024-02-21T07:49:26;99738.53;;;18.91;49.35
35704;BME280;21820;51.112;13.762;2024-02-21T07:51:51;99743.75;;;18.91;49.17
35704;BME280;21820;51.112;13.762;2024-02-21T07:54:18;99733.06;;;18.94;48.99
35704;BME280;21820;51.112;13.762;2024-02-21T07:56:43;99734.25;;;18.79;48.97
35704;BME280;21820;51.112;13.762;2024-02-21T07:59:08;99742.44;;;18.75;49.41
35704;BME280;21820;51.112;13.762;2024-02-21T08:01:34;99756.41;;;18.74;49.29
35704;BME280;21820;51.112;13.762;2024-02-21T08:04:00;99758.31;;;18.72;49.58
35704;BME280;21820;51.112;13.762;2024-02-21T08:06:25;99751.44;;;18.71;50.03
35704;BME280;21820;51.112;13.762;2024-02-21T08:08:50;99749.16;;;18.66;50.34
35704;BME280;21820;51.112;13.762;2024-02-21T08:11:16;99745.63;;;18.67;50.13
35704;BME280;21820;51.112;13.762;2024-02-21T08:13:41;99743.97;;;18.66;50.40
35704;BME280;21820;51.112;13.762;2024-02-21T08:16:06;99741.34;;;18.66;50.89
35704;BME280;21820;51.112;13.762;2024-02-21T08:18:32;99737.09;;;18.65;50.91
35704;BME280;21820;51.112;13.762;2024-02-21T08:21:01;99742.31;;;18.65;50.73
35704;BME280;21820;51.112;13.762;2024-02-21T08:23:26;99721.50;;;18.54;51.27
35704;BME280;21820;51.112;13.762;2024-02-21T08:25:52;99745.03;;;18.64;50.69
35704;BME280;21820;51.112;13.762;2024-02-21T08:28:17;99710.81;;;18.46;50.91
35704;BME280;21820;51.112;13.762;2024-02-21T08:30:42;99738.06;;;18.75;50.69
35704;BME280;21820;51.112;13.762;2024-02-21T08:33:14;99734.03;;;18.82;50.25
35704;BME280;21820;51.112;13.762;2024-02-21T08:35:40;99735.56;;;18.85;49.79
35704;BME280;21820;51.112;13.762;2024-02-21T08:38:05;99725.88;;;18.87;49.61
35704;BME280;21820;51.112;13.762;2024-02-21T08:40:30;99714.59;;;18.86;49.76
35704;BME280;21820;51.112;13.762;2024-02-21T08:42:56;99724.78;;;18.89;49.87
35704;BME280;21820;51.112;13.762;2024-02-21T08:45:21;99719.56;;;18.89;49.43
35704;BME280;21820;51.112;13.762;2024-02-21T08:47:46;99723.13;;;18.88;49.00
35704;BME280;21820;51.112;13.762;2024-02-21T08:50:12;99721.50;;;18.87;49.07
35704;BME280;21820;51.112;13.762;2024-02-21T08:52:37;99719.38;;;18.92;49.41
35704;BME280;21820;51.112;13.762;2024-02-21T08:55:03;99725.38;;;18.93;49.63
35704;BME280;21820;51.112;13.762;2024-02-21T08:57:29;99718.66;;;18.90;49.64
35704;BME280;21820;51.112;13.762;2024-02-21T08:59:54;99726.47;;;18.90;48.97
35704;BME280;21820;51.112;13.762;2024-02-21T09:02:19;99715.81;;;18.93;49.37
35704;BME280;21820;51.112;13.762;2024-02-21T09:04:45;99719.38;;;18.92;49.14
35704;BME280;21820;51.112;13.762;2024-02-21T09:07:11;99702.06;;;18.80;49.42
35704;BME280;21820;51.112;13.762;2024-02-21T09:09:36;99708.56;;;18.86;49.41
35704;BME280;21820;51.112;13.762;2024-02-21T09:12:04;99716.03;;;18.90;50.30
35704;BME280;21820;51.112;13.762;2024-02-21T09:14:34;99708.94;;;18.92;49.61
35704;BME280;21820;51.112;13.762;2024-02-21T09:16:59;99716.03;;;18.90;48.98
35704;BME280;21820;51.112;13.762;2024-02-21T09:19:24;99715.31;;;18.88;48.78
35704;BME280;21820;51.112;13.762;2024-02-21T09:21:50;99708.34;;;18.89;48.83
35704;BME280;21820;51.112;13.762;2024-02-21T09:24:15;99709.88;;;18.91;49.06
35704;BME280;21820;51.112;13.762;2024-02-21T09:26:41;99712.47;;;18.91;48.48
35704;BME280;21820;51.112;13.762;2024-02-21T09:29:06;99694.25;;;18.58;49.15
35704;BME280;21820;51.112;13.762;2024-02-21T09:31:31;99722.88;;;18.69;49.12
35704;BME280;21820;51.112;13.762;2024-02-21T09:33:57;99715.81;;;18.60;49.54
35704;BME280;21820;51.112;13.762;2024-02-21T09:36:22;99721.47;;;18.65;50.16
35704;BME280;21820;51.112;13.762;2024-02-21T09:38:48;99730.25;;;18.64;50.06
35704;BME280;21820;51.112;13.762;2024-02-21T09:41:18;99729.41;;;18.64;50.59
35704;BME280;21820;51.112;13.762;2024-02-21T09:43:44;99732.94;;;18.63;50.83
35704;BME280;21820;51.112;13.762;2024-02-21T09:46:16;99733.06;;;18.61;51.46
35704;BME280;21820;51.112;13.762;2024-02-21T09:51:39;99722.78;;;18.60;50.63
35704;BME280;21820;51.112;13.762;2024-02-21T09:54:07;99705.03;;;18.43;51.11
35704;BME280;21820;51.112;13.762;2024-02-21T09:56:32;99730.69;;;18.58;50.72
35704;BME280;21820;51.112;13.762;2024-02-21T09:58:58;99730.69;;;18.58;51.09
35704;BME280;21820;51.112;13.762;2024-02-21T10:01:23;99728.94;;;18.59;50.80
35704;BME280;21820;51.112;13.762;2024-02-21T10:03:49;99692.84;;;18.54;50.18
35704;BME280;21820;51.112;13.762;2024-02-21T10:06:15;99729.88;;;18.80;50.11
35704;BME280;21820;51.112;13.762;2024-02-21T10:08:40;99726.31;;;18.81;49.92
35704;BME280;21820;51.112;13.762;2024-02-21T10:11:05;99729.66;;;18.83;49.47
35704;BME280;21820;51.112;13.762;2024-02-21T10:13:31;99724.19;;;18.86;49.59
35704;BME280;21820;51.112;13.762;2024-02-21T10:16:06;99696.50;;;18.74;50.42
35704;BME280;21820;51.112;13.762;2024-02-21T10:18:32;99725.88;;;18.87;49.14
35704;BME280;21820;51.112;13.762;2024-02-21T10:21:06;99726.69;;;18.87;49.77
35704;BME280;21820;51.112;13.762;2024-02-21T10:23:45;99723.38;;;18.85;50.47
35704;BME280;21820;51.112;13.762;2024-02-21T10:26:11;99724.19;;;18.86;49.61
35704;BME280;21820;51.112;13.762;2024-02-21T10:28:37;99733.81;;;18.85;49.78
35704;BME280;21820;51.112;13.762;2024-02-21T10:31:07;99714.84;;;18.83;49.66
35704;BME280;21820;51.112;13.762;2024-02-21T10:33:32;99718.97;;;18.86;49.14
35704;BME280;21820;51.112;13.762;2024-02-21T10:36:09;99711.28;;;18.84;50.08
35704;BME280;21820;51.112;13.762;2024-02-21T10:38:38;99706.06;;;18.84;49.32
35704;BME280;21820;51.112;13.762;2024-02-21T10:41:06;99702.78;;;18.82;49.87
35704;BME280;21820;51.112;13.762;2024-02-21T10:43:40;99700.88;;;18.84;49.67
35704;BME280;21820;51.112;13.762;2024-02-21T10:46:09;99702.53;;;18.85;49.49
35704;BME280;21820;51.112;13.762;2024-02-21T10:48:42;99696.50;;;18.85;49.68
35704;BME280;21820;51.112;13.762;2024-02-21T10:56:38;99681.13;;;18.82;49.53
35704;BME280;21820;51.112;13.762;2024-02-21T10:59:05;99680.28;;;18.81;48.58
35704;BME280;21820;51.112;13.762;2024-02-21T11:01:31;99676.84;;;18.70;48.80
35704;BME280;21820;51.112;13.762;2024-02-21T11:04:01;99672.72;;;18.67;49.52
35704;BME280;21820;51.112;13.762;2024-02-21T11:06:27;99680.66;;;18.66;50.10
35704;BME280;21820;51.112;13.762;2024-02-21T11:09:05;99674.84;;;18.62;51.10
35704;BME280;21820;51.112;13.762;2024-02-21T11:11:40;99669.66;;;18.62;50.42
35704;BME280;21820;51.112;13.762;2024-02-21T11:14:19;99671.41;;;18.62;51.64
35704;BME280;21820;51.112;13.762;2024-02-21T11:16:45;99657.56;;;18.61;49.99
35704;BME280;21820;51.112;13.762;2024-02-21T11:21:47;99656.88;;;18.59;51.01
35704;BME280;21820;51.112;13.762;2024-02-21T11:24:13;99647.38;;;18.58;51.14
35704;BME280;21820;51.112;13.762;2024-02-21T11:26:40;99610.50;;;18.42;50.97
35704;BME280;21820;51.112;13.762;2024-02-21T11:29:07;99630.84;;;18.59;50.83
35704;BME280;21820;51.112;13.762;2024-02-21T11:31:41;99630.13;;;18.57;51.78
35704;BME280;21820;51.112;13.762;2024-02-21T11:34:10;99628.25;;;18.59;51.63
35704;BME280;21820;51.112;13.762;2024-02-21T11:36:39;99622.75;;;18.73;50.44
35704;BME280;21820;51.112;13.762;2024-02-21T11:39:11;99621.34;;;18.80;49.73
35704;BME280;21820;51.112;13.762;2024-02-21T11:41:36;99613.53;;;18.80;49.86
35704;BME280;21820;51.112;13.762;2024-02-21T11:44:01;99610.09;;;18.80;49.85
35704;BME280;21820;51.112;13.762;2024-02-21T11:46:27;99600.50;;;18.80;50.03
35704;BME280;21820;51.112;13.762;2024-02-21T11:48:52;99604.63;;;18.83;49.46
35704;BME280;21820;51.112;13.762;2024-02-21T11:51:24;99599.53;;;18.81;49.39
35704;BME280;21820;51.112;13.762;2024-02-21T11:53:50;99587.94;;;18.85;49.13
35704;BME280;21820;51.112;13.762;2024-02-21T11:56:16;99595.03;;;18.83;49.62
35704;BME280;21820;51.112;13.762;2024-02-21T11:58:41;99601.56;;;18.89;49.55
35704;BME280;21820;51.112;13.762;2024-02-21T12:01:08;99574.59;;;18.79;49.30
35704;BME280;21820;51.112;13.762;2024-02-21T12:03:33;99574.22;;;18.83;49.43
35704;BME280;21820;51.112;13.762;2024-02-21T12:06:01;99577.53;;;18.85;49.03
35704;BME280;21820;51.112;13.762;2024-02-21T12:08:40;99574.91;;;18.85;49.15
35704;BME280;21820;51.112;13.762;2024-02-21T12:11:16;99569.00;;;18.83;49.74
35704;BME280;21820;51.112;13.762;2024-02-21T12:13:41;99555.84;;;18.85;49.24
35704;BME280;21820;51.112;13.762;2024-02-21T12:16:06;99555.00;;;18.84;49.52
35704;BME280;21820;51.112;13.762;2024-02-21T12:18:32;99545.09;;;18.78;49.31
35704;BME280;21820;51.112;13.762;2024-02-21T12:20:58;99541.41;;;18.81;48.93
35704;BME280;21820;51.112;13.762;2024-02-21T12:23:26;99541.06;;;18.74;49.69
35704;BME280;21820;51.112;13.762;2024-02-21T12:25:52;99550.06;;;18.81;49.23
35704;BME280;21820;51.112;13.762;2024-02-21T12:28:19;99533.50;;;18.82;49.14
35704;BME280;21820;51.112;13.762;2024-02-21T12:30:45;99503.47;;;18.67;49.20
35704;BME280;21820;51.112;13.762;2024-02-21T12:33:10;99516.91;;;18.83;49.43
35704;BME280;21820;51.112;13.762;2024-02-21T12:35:35;99526.63;;;18.81;48.51
35704;BME280;21820;51.112;13.762;2024-02-21T12:38:01;99511.03;;;18.70;49.12
35704;BME280;21820;51.112;13.762;2024-02-21T12:40:26;99500.16;;;18.65;49.35
35704;BME280;21820;51.112;13.762;2024-02-21T12:42:58;99490.94;;;18.61;49.62
35704;BME280;21820;51.112;13.762;2024-02-21T12:45:23;99490.13;;;18.61;49.90
35704;BME280;21820;51.112;13.762;2024-02-21T12:47:49;99492.84;;;18.59;50.57
35704;BME280;21820;51.112;13.762;2024-02-21T12:50:14;99487.66;;;18.59;49.98
35704;BME280;21820;51.112;13.762;2024-02-21T12:52:40;99488.56;;;18.58;50.73
35704;BME280;21820;51.112;13.762;2024-02-21T12:55:06;99476.66;;;18.56;50.32